Time;durP1;ratioP1;P1;durP2;ratioP2;P2;SDS_P1;SDS_P2;PMS_P1;PMS_P2;Temp;Humidity;BMP_temperature;BMP_pressure;BME280_temperature;BME280_humidity;BME280_pressure;Samples;Min_cycle;Max_cycle;Signal;HPM_P1;HPM_P2
2021/08/15 00:01:53;;;;;;;11.20;5.40;;;19.30;99.90;;;;;;6250186;28;20249;-70
2021/08/15 00:04:55;;;;;;;9.13;5.30;;;19.30;99.90;;;;;;6250271;28;20203;-71
2021/08/15 00:07:58;;;;;;;7.17;4.10;;;19.20;99.90;;;;;;6248968;28;20207;-71
2021/08/15 00:11:01;;;;;;;12.30;5.37;;;19.20;99.90;;;;;;6248395;28;20769;-70
2021/08/15 00:14:04;;;;;;;7.83;4.97;;;19.10;99.90;;;;;;6250034;28;20195;-71
2021/08/15 00:17:06;;;;;;;10.57;5.27;;;19.10;99.90;;;;;;6248483;28;20237;-71
2021/08/15 00:20:11;;;;;;;8.23;5.67;;;19.10;99.90;;;;;;6248156;28;20254;-71
2021/08/15 00:23:13;;;;;;;8.20;5.43;;;19.10;99.90;;;;;;6264926;28;20200;-70
2021/08/15 00:26:15;;;;;;;8.00;5.07;;;19.10;99.90;;;;;;6249436;28;20537;-72
2021/08/15 00:29:17;;;;;;;11.20;5.60;;;19.10;99.90;;;;;;6265048;28;20335;-70
2021/08/15 00:32:20;;;;;;;7.33;4.73;;;19.10;99.90;;;;;;6248891;28;20639;-70
2021/08/15 00:35:22;;;;;;;8.00;5.50;;;19.10;99.90;;;;;;6248200;28;20294;-70
2021/08/15 00:38:24;;;;;;;12.63;6.00;;;19.10;99.90;;;;;;6248364;28;20188;-71
2021/08/15 00:41:27;;;;;;;9.53;6.00;;;19.00;99.90;;;;;;6249099;28;20580;-71
2021/08/15 00:44:29;;;;;;;8.63;5.20;;;19.00;99.90;;;;;;6249339;28;20564;-70
2021/08/15 00:47:32;;;;;;;6.80;5.33;;;19.00;99.90;;;;;;6248723;28;20191;-70
2021/08/15 00:50:34;;;;;;;6.93;5.47;;;19.00;99.90;;;;;;6247855;28;20290;-70
2021/08/15 00:53:39;;;;;;;11.60;6.23;;;19.00;99.90;;;;;;6249047;28;20227;-71
2021/08/15 00:56:41;;;;;;;8.13;5.63;;;18.90;99.90;;;;;;6247555;28;20192;-71
2021/08/15 00:59:43;;;;;;;9.53;5.73;;;18.90;99.90;;;;;;6247736;28;20279;-71
2021/08/15 01:02:50;;;;;;;7.93;5.80;;;18.90;99.90;;;;;;6249002;28;20200;-70
2021/08/15 01:05:54;;;;;;;5.80;5.20;;;18.90;99.90;;;;;;6249129;28;20636;-70
2021/08/15 01:08:56;;;;;;;8.40;5.50;;;18.90;99.90;;;;;;6249039;28;20183;-71
2021/08/15 01:12:03;;;;;;;12.20;5.93;;;19.00;99.90;;;;;;6248553;28;20211;-71
2021/08/15 01:15:09;;;;;;;11.13;5.33;;;18.90;99.90;;;;;;6263755;28;20273;-70
2021/08/15 01:18:27;;;;;;;7.83;5.43;;;18.80;99.90;;;;;;6246966;28;20234;-70
2021/08/15 01:21:29;;;;;;;7.90;5.37;;;18.80;99.90;;;;;;6248481;28;20219;-71
2021/08/15 01:24:33;;;;;;;10.50;6.13;;;18.80;99.90;;;;;;6248261;28;20228;-71
2021/08/15 01:27:55;;;;;;;11.07;5.83;;;18.80;99.90;;;;;;6248421;28;20195;-71
2021/08/15 01:30:58;;;;;;;14.53;6.00;;;18.70;99.90;;;;;;6246868;28;20198;-70
2021/08/15 01:34:00;;;;;;;9.10;5.97;;;18.70;99.90;;;;;;6247774;28;20212;-70
2021/08/15 01:37:03;;;;;;;9.60;5.33;;;18.70;99.90;;;;;;6246734;28;20219;-71
2021/08/15 01:40:07;;;;;;;7.80;6.23;;;18.70;99.90;;;;;;6247950;28;20529;-71
2021/08/15 01:43:09;;;;;;;11.60;6.50;;;18.70;99.90;;;;;;6246492;28;20507;-70
2021/08/15 01:46:12;;;;;;;9.53;5.90;;;18.70;99.90;;;;;;6247847;28;20319;-71
2021/08/15 01:49:14;;;;;;;8.77;5.87;;;18.70;99.90;;;;;;6246546;28;20652;-71
2021/08/15 01:52:16;;;;;;;8.47;6.63;;;18.70;99.90;;;;;;6247964;28;20202;-71
2021/08/15 01:55:22;;;;;;;6.27;5.63;;;18.70;99.90;;;;;;6262292;28;20199;-71
2021/08/15 01:58:24;;;;;;;11.47;5.60;;;18.70;99.90;;;;;;6263072;28;20664;-70
2021/08/15 02:01:26;;;;;;;9.67;6.00;;;18.70;99.90;;;;;;6246235;28;20198;-70
2021/08/15 02:04:29;;;;;;;9.67;6.67;;;18.70;99.90;;;;;;6247550;28;20293;-70
2021/08/15 02:07:32;;;;;;;8.13;5.77;;;18.60;99.90;;;;;;6246357;28;20196;-69
2021/08/15 02:10:35;;;;;;;8.97;6.27;;;18.60;99.90;;;;;;6245724;28;20192;-70
2021/08/15 02:13:38;;;;;;;10.27;6.57;;;18.60;99.90;;;;;;6262204;28;20572;-71
2021/08/15 02:16:40;;;;;;;11.27;6.20;;;18.60;99.90;;;;;;6262053;28;20236;-70
2021/08/15 02:19:42;;;;;;;9.20;6.00;;;18.60;99.90;;;;;;6247110;28;20199;-72
2021/08/15 02:22:45;;;;;;;8.17;5.67;;;18.60;99.90;;;;;;6246437;28;20192;-70
2021/08/15 02:25:48;;;;;;;10.07;5.97;;;18.60;99.90;;;;;;6262119;28;20559;-71
2021/08/15 02:28:50;;;;;;;6.73;6.03;;;18.60;99.90;;;;;;6246841;28;20267;-70
2021/08/15 02:31:52;;;;;;;9.03;6.57;;;18.60;99.90;;;;;;6246519;28;20207;-71
2021/08/15 02:34:54;;;;;;;11.60;7.23;;;18.60;99.90;;;;;;6246718;28;20215;-70
2021/08/15 02:37:59;;;;;;;9.93;6.97;;;18.60;99.90;;;;;;6246682;28;20420;-71
2021/08/15 02:41:01;;;;;;;9.83;6.23;;;18.60;99.90;;;;;;6246382;28;20194;-70
2021/08/15 02:44:03;;;;;;;10.57;6.77;;;18.60;99.90;;;;;;6245264;28;20273;-71
2021/08/15 02:47:06;;;;;;;9.87;6.63;;;18.60;99.90;;;;;;6246151;28;20188;-70
2021/08/15 02:50:10;;;;;;;10.27;7.03;;;18.60;99.90;;;;;;6261780;28;20710;-71
2021/08/15 02:53:12;;;;;;;8.70;6.27;;;18.60;99.90;;;;;;6261013;28;20270;-71
2021/08/15 02:56:14;;;;;;;9.20;6.67;;;18.60;99.90;;;;;;6245038;28;20655;-70
2021/08/15 02:59:16;;;;;;;10.63;6.50;;;18.60;99.90;;;;;;6246280;28;20185;-71
2021/08/15 03:02:20;;;;;;;12.77;6.73;;;18.60;99.90;;;;;;6245785;28;20219;-70
2021/08/15 03:05:23;;;;;;;10.30;6.47;;;18.50;99.90;;;;;;6261226;28;20206;-70
2021/08/15 03:08:25;;;;;;;8.20;6.53;;;18.40;99.90;;;;;;6245805;28;20200;-70
2021/08/15 03:11:27;;;;;;;10.40;6.80;;;18.40;99.90;;;;;;6246183;28;20605;-70
2021/08/15 03:14:30;;;;;;;10.83;6.70;;;18.50;99.90;;;;;;6261094;28;20207;-70
2021/08/15 03:17:33;;;;;;;9.07;6.13;;;18.50;99.90;;;;;;6245263;28;20223;-70
2021/08/15 03:20:35;;;;;;;11.10;6.77;;;18.50;99.90;;;;;;6244645;28;20555;-70
2021/08/15 03:23:37;;;;;;;10.27;7.23;;;18.50;99.90;;;;;;6245323;28;20203;-70
2021/08/15 03:26:45;;;;;;;9.77;6.80;;;18.50;99.90;;;;;;6245541;28;20207;-71
2021/08/15 03:29:47;;;;;;;11.57;7.50;;;18.50;99.90;;;;;;6244213;28;20207;-71
2021/08/15 03:32:49;;;;;;;9.47;6.47;;;18.50;99.90;;;;;;6244995;28;20285;-71
2021/08/15 03:35:51;;;;;;;9.17;6.50;;;18.40;99.90;;;;;;6243405;28;20679;-70
2021/08/15 03:38:53;;;;;;;9.80;6.23;;;18.40;99.90;;;;;;6245142;28;20199;-71
2021/08/15 03:41:59;;;;;;;10.73;6.70;;;18.40;99.90;;;;;;6260635;28;20242;-71
2021/08/15 03:45:03;;;;;;;14.17;6.90;;;18.40;99.90;;;;;;6260284;28;20200;-70
2021/08/15 03:48:06;;;;;;;8.43;6.57;;;18.40;99.90;;;;;;6245294;28;20200;-70
2021/08/15 03:51:08;;;;;;;6.47;5.87;;;18.50;99.90;;;;;;6245364;28;20196;-73
2021/08/15 03:54:11;;;;;;;8.37;6.70;;;18.50;99.90;;;;;;6243626;28;20338;-70
2021/08/15 03:57:13;;;;;;;10.83;6.70;;;18.50;99.90;;;;;;6245268;28;20196;-71
2021/08/15 04:00:15;;;;;;;7.57;6.87;;;18.60;99.90;;;;;;6244920;28;20191;-71
2021/08/15 04:03:18;;;;;;;9.87;6.50;;;18.60;99.90;;;;;;6243938;28;20680;-72
2021/08/15 04:06:21;;;;;;;7.87;6.53;;;18.60;99.90;;;;;;6245363;28;20200;-71
2021/08/15 04:09:24;;;;;;;6.97;6.17;;;18.50;99.90;;;;;;6244712;28;20192;-70
2021/08/15 04:12:26;;;;;;;9.10;6.63;;;18.50;99.90;;;;;;6243502;28;20212;-70
2021/08/15 04:15:28;;;;;;;7.73;6.27;;;18.50;99.90;;;;;;6242785;28;20914;-72
2021/08/15 04:18:30;;;;;;;8.03;6.70;;;18.50;99.90;;;;;;6244653;28;20620;-70
2021/08/15 04:21:33;;;;;;;11.80;7.33;;;18.50;99.90;;;;;;6235268;28;20266;-70
2021/08/15 04:24:35;;;;;;;9.07;6.50;;;18.50;99.90;;;;;;6238491;28;20223;-70
2021/08/15 04:27:37;;;;;;;9.50;6.70;;;18.50;99.90;;;;;;6244507;28;20643;-70
2021/08/15 04:30:40;;;;;;;8.23;7.07;;;18.50;99.90;;;;;;6242791;28;20663;-70
2021/08/15 04:33:42;;;;;;;9.60;7.33;;;18.50;99.90;;;;;;6243202;28;20204;-69
2021/08/15 04:36:44;;;;;;;8.17;7.33;;;18.50;99.90;;;;;;6243958;28;20200;-70
2021/08/15 04:39:46;;;;;;;10.57;7.57;;;18.50;99.90;;;;;;6244245;28;20701;-71
2021/08/15 04:42:49;;;;;;;9.80;7.20;;;18.60;99.90;;;;;;6259556;28;20261;-72
2021/08/15 04:45:51;;;;;;;9.37;6.53;;;18.60;99.90;;;;;;6245755;28;20579;-70
2021/08/15 04:48:53;;;;;;;8.07;7.00;;;18.70;99.90;;;;;;6231250;28;20196;-70
2021/08/15 04:51:56;;;;;;;10.33;6.83;;;18.70;99.90;;;;;;6247091;28;20192;-70
2021/08/15 04:54:58;;;;;;;11.67;6.87;;;18.70;99.90;;;;;;6263880;28;20203;-70
2021/08/15 04:58:00;;;;;;;8.20;6.90;;;18.80;99.90;;;;;;6247341;28;20791;-70
2021/08/15 05:01:04;;;;;;;9.27;7.00;;;18.90;99.90;;;;;;6248297;28;20211;-70
2021/08/15 05:04:07;;;;;;;9.93;7.30;;;19.00;99.90;;;;;;6248392;28;20222;-70
2021/08/15 05:07:09;;;;;;;7.70;7.00;;;19.00;99.90;;;;;;6248797;28;20624;-71
2021/08/15 05:10:11;;;;;;;8.87;6.77;;;19.00;99.90;;;;;;6247139;28;20200;-70
2021/08/15 05:13:13;;;;;;;8.87;6.60;;;19.00;99.90;;;;;;6246863;28;20212;-70
2021/08/15 05:16:16;;;;;;;9.07;7.77;;;19.00;99.90;;;;;;6246519;28;20235;-70
2021/08/15 05:19:18;;;;;;;8.40;7.20;;;19.10;99.90;;;;;;6248136;28;20728;-70
2021/08/15 05:22:21;;;;;;;10.03;7.97;;;19.10;99.90;;;;;;6262986;28;20196;-70
2021/08/15 05:25:25;;;;;;;8.73;7.93;;;19.10;99.90;;;;;;6246594;28;20188;-70
2021/08/15 05:28:27;;;;;;;9.20;8.03;;;19.20;99.90;;;;;;6247780;28;20199;-70
2021/08/15 05:31:29;;;;;;;10.40;7.40;;;19.20;99.90;;;;;;6247011;28;20246;-72
2021/08/15 05:34:32;;;;;;;8.77;7.67;;;19.20;99.90;;;;;;6247707;28;20274;-70
2021/08/15 05:37:34;;;;;;;11.90;8.40;;;19.20;99.90;;;;;;6262506;28;20196;-70
2021/08/15 05:40:36;;;;;;;11.47;8.23;;;19.30;99.90;;;;;;6246327;28;20337;-70
2021/08/15 05:43:38;;;;;;;10.63;7.63;;;19.30;99.90;;;;;;6247137;28;20301;-70
2021/08/15 05:46:40;;;;;;;10.30;7.00;;;19.40;99.90;;;;;;6246352;28;20666;-71
2021/08/15 05:49:43;;;;;;;9.17;8.27;;;19.50;99.90;;;;;;6247341;28;20188;-71
2021/08/15 05:52:45;;;;;;;10.33;7.93;;;19.60;99.90;;;;;;6246919;28;20204;-70
2021/08/15 05:55:47;;;;;;;13.13;8.10;;;19.70;99.90;;;;;;6246186;28;20266;-70
2021/08/15 05:58:49;;;;;;;9.13;7.77;;;19.70;99.90;;;;;;6244752;28;20200;-71
2021/08/15 06:01:53;;;;;;;9.80;7.70;;;19.80;99.90;;;;;;6246046;28;20221;-70
2021/08/15 06:04:55;;;;;;;10.53;7.70;;;19.80;99.90;;;;;;6246840;28;20196;-71
2021/08/15 06:07:58;;;;;;;8.13;7.10;;;19.90;99.90;;;;;;6246809;28;20250;-70
2021/08/15 06:11:00;;;;;;;8.87;7.50;;;20.00;99.90;;;;;;6262238;28;20211;-71
2021/08/15 06:14:02;;;;;;;7.97;7.17;;;20.10;99.90;;;;;;6261667;28;20326;-70
2021/08/15 06:17:05;;;;;;;11.77;7.73;;;20.20;99.90;;;;;;6246660;28;20228;-70
2021/08/15 06:20:09;;;;;;;9.17;7.73;;;20.40;99.90;;;;;;6246442;28;20614;-70
2021/08/15 06:23:12;;;;;;;9.27;7.80;;;20.60;99.90;;;;;;6261966;28;20294;-71
2021/08/15 06:26:15;;;;;;;8.33;7.23;;;20.80;99.90;;;;;;6246695;28;20668;-70
2021/08/15 06:29:17;;;;;;;9.80;7.80;;;21.00;99.90;;;;;;6246898;28;20194;-70
2021/08/15 06:32:19;;;;;;;8.43;7.53;;;21.10;99.90;;;;;;6245092;28;20200;-71
2021/08/15 06:35:25;;;;;;;8.00;7.20;;;21.30;99.90;;;;;;6245687;28;20212;-70
2021/08/15 06:38:27;;;;;;;9.00;6.97;;;21.50;99.90;;;;;;6261627;28;20203;-71
2021/08/15 06:41:29;;;;;;;7.77;6.80;;;21.70;99.90;;;;;;6241138;28;20207;-71
2021/08/15 06:44:32;;;;;;;10.90;6.77;;;21.80;99.90;;;;;;6245952;28;20635;-70
2021/08/15 06:47:34;;;;;;;8.60;7.30;;;22.00;99.90;;;;;;6245949;28;20215;-70
2021/08/15 06:50:37;;;;;;;8.30;7.50;;;22.10;99.90;;;;;;6246051;28;20191;-70
2021/08/15 06:53:39;;;;;;;12.80;7.17;;;22.20;99.90;;;;;;6243439;28;20228;-71
2021/08/15 06:56:42;;;;;;;10.27;6.97;;;22.30;99.90;;;;;;6258493;28;20554;-71
2021/08/15 06:59:44;;;;;;;7.93;6.50;;;22.50;99.90;;;;;;6244337;28;20203;-70
2021/08/15 07:02:48;;;;;;;12.63;8.20;;;22.60;99.90;;;;;;6245618;28;20587;-70
2021/08/15 07:05:52;;;;;;;11.20;6.33;;;22.70;99.90;;;;;;6244062;28;20196;-71
2021/08/15 07:08:54;;;;;;;9.23;7.37;;;22.60;99.90;;;;;;6245475;28;20200;-70
2021/08/15 07:11:56;;;;;;;8.73;7.10;;;22.60;99.90;;;;;;6244105;28;20206;-70
2021/08/15 07:14:59;;;;;;;8.57;7.27;;;22.50;99.90;;;;;;6245226;28;20212;-71
2021/08/15 07:18:02;;;;;;;10.03;6.87;;;22.60;99.90;;;;;;6245199;28;20227;-71
2021/08/15 07:21:04;;;;;;;8.67;6.97;;;22.90;99.90;;;;;;6244994;28;20568;-71
2021/08/15 07:24:07;;;;;;;10.13;6.67;;;23.30;99.90;;;;;;6260540;28;20192;-70
2021/08/15 07:27:09;;;;;;;8.97;6.47;;;23.60;99.90;;;;;;6243621;28;20200;-70
2021/08/15 07:30:15;;;;;;;9.97;6.20;;;23.90;99.90;;;;;;6245243;28;20552;-71
2021/08/15 07:33:18;;;;;;;9.27;6.77;;;24.30;99.90;;;;;;6244926;28;20235;-71
2021/08/15 07:36:20;;;;;;;8.70;7.07;;;24.80;99.90;;;;;;6243483;28;20215;-70
2021/08/15 07:39:23;;;;;;;8.07;6.40;;;25.30;99.90;;;;;;6243774;28;20187;-71
2021/08/15 07:42:25;;;;;;;6.70;5.90;;;25.70;99.90;;;;;;6244736;28;20212;-70
2021/08/15 07:45:31;;;;;;;7.93;5.85;;;26.20;99.90;;;;;;6244877;28;20192;-71
2021/08/15 07:48:33;;;;;;;7.47;6.38;;;26.40;99.90;;;;;;6243696;28;20204;-70
2021/08/15 07:51:36;;;;;;;8.82;6.43;;;26.50;99.90;;;;;;6259761;28;20214;-70
2021/08/15 07:54:38;;;;;;;6.32;5.72;;;26.70;99.90;;;;;;6243367;28;20358;-70
2021/08/15 07:57:40;;;;;;;8.98;5.82;;;26.90;99.90;;;;;;6244513;28;20188;-71
2021/08/15 08:00:44;;;;;;;9.77;5.30;;;27.00;99.90;;;;;;6259852;28;20663;-70
2021/08/15 08:03:46;;;;;;;6.78;6.07;;;26.90;99.90;;;;;;6259597;28;20192;-70
2021/08/15 08:06:50;;;;;;;8.80;5.60;;;26.80;99.90;;;;;;6243594;28;20222;-70
2021/08/15 08:09:53;;;;;;;6.00;5.03;;;26.80;99.90;;;;;;6244852;28;20289;-71
2021/08/15 08:12:55;;;;;;;6.43;5.60;;;26.90;99.90;;;;;;6243013;28;20212;-72
2021/08/15 08:15:58;;;;;;;7.07;5.30;;;27.00;99.90;;;;;;6259537;28;20197;-71
2021/08/15 08:19:01;;;;;;;6.70;5.60;;;26.80;99.90;;;;;;6242924;28;20200;-71
2021/08/15 08:22:04;;;;;;;6.90;5.70;;;26.60;99.90;;;;;;6248879;28;20188;-71
2021/08/15 08:25:06;;;;;;;6.28;5.68;;;26.50;99.90;;;;;;6248097;28;20203;-70
2021/08/15 08:28:09;;;;;;;7.22;5.47;;;26.70;99.90;;;;;;6249144;28;20651;-70
2021/08/15 08:31:11;;;;;;;7.22;6.40;;;27.00;99.90;;;;;;6264540;28;20395;-71
2021/08/15 08:34:13;;;;;;;6.10;5.25;;;27.50;99.90;;;;;;6248828;28;20287;-71
2021/08/15 08:37:18;;;;;;;8.55;5.97;;;28.00;99.90;;;;;;6264495;28;20551;-70
2021/08/15 08:40:21;;;;;;;14.88;6.18;;;28.50;99.90;;;;;;6247891;28;20286;-71
2021/08/15 08:43:24;;;;;;;12.05;6.57;;;29.00;99.90;;;;;;6248556;28;20234;-72
2021/08/15 08:46:26;;;;;;;21.92;7.00;;;29.40;99.90;;;;;;6247660;28;20199;-71
2021/08/15 08:49:29;;;;;;;11.57;5.70;;;29.90;99.90;;;;;;6248539;28;20200;-71
2021/08/15 08:52:31;;;;;;;5.63;4.95;;;30.30;99.10;;;;;;6248888;28;20595;-72
2021/08/15 08:55:34;;;;;;;6.53;4.82;;;30.60;97.50;;;;;;6248224;28;20204;-71
2021/08/15 08:58:36;;;;;;;5.55;5.05;;;30.90;96.00;;;;;;6248816;28;20183;-71
2021/08/15 09:01:42;;;;;;;9.80;4.85;;;31.10;94.80;;;;;;6247455;28;20301;-71
2021/08/15 09:04:45;;;;;;;5.32;4.40;;;31.40;92.80;;;;;;6248215;28;20204;-71
2021/08/15 09:07:48;;;;;;;5.72;4.75;;;31.70;92.10;;;;;;6248573;28;20207;-71
2021/08/15 09:10:51;;;;;;;5.90;4.85;;;31.80;87.70;;;;;;6248239;28;20214;-71
2021/08/15 09:14:05;;;;;;;5.50;4.50;;;31.80;87.30;;;;;;6247197;28;20220;-71
2021/08/15 09:17:08;;;;;;;6.60;5.32;;;32.00;87.60;;;;;;6248221;28;20232;-71
2021/08/15 09:20:13;;;;;;;7.03;4.90;;;32.20;82.80;;;;;;6248039;28;20196;-71
2021/08/15 09:23:20;;;;;;;5.65;5.05;;;32.40;82.10;;;;;;6263516;28;20202;-71
2021/08/15 09:26:23;;;;;;;5.22;4.57;;;32.60;82.90;;;;;;6262958;28;20741;-71
2021/08/15 09:29:25;;;;;;;5.50;5.00;;;33.00;83.30;;;;;;6247952;28;20187;-70
2021/08/15 09:32:28;;;;;;;6.38;4.80;;;33.50;82.70;;;;;;6245025;28;20212;-71
2021/08/15 09:35:31;;;;;;;8.43;5.25;;;33.80;79.40;;;;;;6246495;28;20289;-71
2021/08/15 09:38:42;;;;;;;5.97;5.22;;;34.20;77.80;;;;;;6246784;28;20294;-71
2021/08/15 09:41:51;;;;;;;5.03;4.53;;;34.40;76.10;;;;;;6247462;28;20192;-71
2021/08/15 09:44:53;;;;;;;5.57;5.10;;;34.60;73.50;;;;;;6247639;28;20553;-71
2021/08/15 09:47:55;;;;;;;5.78;4.88;;;34.50;68.50;;;;;;6262565;28;20204;-71
2021/08/15 09:51:17;;;;;;;8.05;4.70;;;34.30;59.70;;;;;;6247586;28;20203;-71
2021/08/15 09:54:20;;;;;;;5.75;5.03;;;34.30;69.00;;;;;;6262696;28;20305;-72
2021/08/15 09:57:33;;;;;;;5.88;4.63;;;34.60;69.40;;;;;;6262433;28;20286;-71
2021/08/15 10:00:36;;;;;;;5.32;4.82;;;35.00;65.90;;;;;;6246094;28;20277;-71
2021/08/15 10:03:41;;;;;;;5.40;4.60;;;35.30;66.60;;;;;;6245565;28;20195;-72
2021/08/15 10:06:45;;;;;;;8.13;4.95;;;35.50;64.60;;;;;;6246037;28;20180;-71
2021/08/15 10:09:48;;;;;;;6.57;5.13;;;35.60;62.10;;;;;;6246895;28;20192;-71
2021/08/15 10:12:50;;;;;;;5.25;4.75;;;35.70;61.70;;;;;;6245534;28;20678;-71
2021/08/15 10:16:11;;;;;;;4.65;4.28;;;35.80;62.70;;;;;;6246541;28;20241;-72
2021/08/15 10:19:17;;;;;;;5.32;4.55;;;35.90;63.80;;;;;;6245310;28;20648;-71
2021/08/15 10:22:25;;;;;;;5.25;4.47;;;36.20;62.70;;;;;;6247260;28;20258;-71
2021/08/15 10:25:42;;;;;;;6.10;4.72;;;36.60;61.90;;;;;;6246161;28;20594;-71
2021/08/15 10:28:44;;;;;;;7.65;5.63;;;36.80;58.20;;;;;;6246707;28;20195;-71
2021/08/15 10:32:22;;;;;;;6.03;5.03;;;36.90;53.30;;;;;;6245087;28;20330;-71
2021/08/15 10:35:29;;;;;;;6.90;5.30;;;36.90;51.00;;;;;;6243074;28;20688;-71
2021/08/15 10:38:31;;;;;;;6.00;5.47;;;36.50;52.50;;;;;;6247335;28;20207;-71
2021/08/15 10:41:45;;;;;;;7.15;5.38;;;36.50;53.30;;;;;;6244577;28;20527;-71
2021/08/15 10:45:07;;;;;;;5.60;5.05;;;36.40;52.80;;;;;;6245659;28;20284;-71
2021/08/15 10:48:18;;;;;;;6.63;4.63;;;36.50;55.20;;;;;;6245967;28;20303;-71
2021/08/15 10:51:45;;;;;;;7.57;5.75;;;36.90;56.40;;;;;;6246292;28;20185;-71
2021/08/15 10:55:01;;;;;;;7.50;5.50;;;37.10;54.70;;;;;;6245259;28;20229;-71
2021/08/15 10:58:03;;;;;;;6.00;4.72;;;37.10;49.00;;;;;;6244480;28;20678;-71
2021/08/15 11:01:09;;;;;;;5.68;4.97;;;37.20;50.90;;;;;;6244655;28;20566;-72
2021/08/15 11:04:32;;;;;;;7.18;5.50;;;37.30;51.60;;;;;;6260990;28;20215;-71
2021/08/15 11:07:40;;;;;;;8.50;5.43;;;37.40;52.10;;;;;;6245913;28;20219;-72
2021/08/15 11:11:08;;;;;;;5.55;4.90;;;37.70;52.90;;;;;;6245791;28;20193;-71
2021/08/15 11:14:20;;;;;;;8.85;5.30;;;37.70;51.30;;;;;;6245433;28;20218;-71
2021/08/15 11:17:24;;;;;;;6.93;5.15;;;37.70;52.40;;;;;;6244006;28;20234;-72
2021/08/15 11:20:37;;;;;;;6.63;5.53;;;37.70;50.60;;;;;;6244007;28;20242;-71
2021/08/15 11:23:41;;;;;;;7.38;5.80;;;37.70;50.30;;;;;;6245432;28;20648;-72
2021/08/15 11:26:47;;;;;;;6.32;5.55;;;37.50;47.00;;;;;;6244785;28;20184;-71
2021/08/15 11:29:51;;;;;;;6.63;5.00;;;37.50;48.70;;;;;;6244230;28;20330;-71
2021/08/15 11:32:56;;;;;;;7.45;5.35;;;37.30;46.40;;;;;;6244901;28;20195;-72
2021/08/15 11:35:58;;;;;;;7.40;5.03;;;37.60;47.10;;;;;;6243975;28;20574;-71
2021/08/15 11:39:02;;;;;;;8.07;5.63;;;37.80;50.30;;;;;;6245081;28;20269;-71
2021/08/15 11:42:14;;;;;;;7.22;5.32;;;37.80;46.10;;;;;;6228342;28;20572;-70
2021/08/15 11:45:16;;;;;;;11.70;5.78;;;37.70;46.30;;;;;;6218968;28;20196;-71
2021/08/15 11:48:21;;;;;;;7.68;5.75;;;38.00;45.90;;;;;;6260009;28;20203;-71
2021/08/15 11:51:23;;;;;;;7.78;5.57;;;38.00;44.70;;;;;;6243812;28;20286;-71
2021/08/15 11:54:39;;;;;;;7.25;5.22;;;38.00;44.50;;;;;;6242888;28;20207;-72
2021/08/15 11:57:54;;;;;;;9.40;5.22;;;38.10;44.90;;;;;;6244870;28;20196;-71
2021/08/15 12:01:06;;;;;;;6.30;5.43;;;38.30;45.20;;;;;;6243636;28;20191;-72
2021/08/15 12:04:08;;;;;;;9.00;5.68;;;38.00;44.20;;;;;;6244512;28;20187;-71
2021/08/15 12:07:11;;;;;;;7.70;5.70;;;37.90;44.10;;;;;;6243497;28;20732;-72
2021/08/15 12:10:29;;;;;;;7.03;5.72;;;38.00;43.80;;;;;;6243187;28;20200;-72
2021/08/15 12:13:39;;;;;;;9.82;5.88;;;37.20;43.80;;;;;;6244741;28;20200;-72
2021/08/15 12:16:54;;;;;;;8.57;5.88;;;36.50;44.80;;;;;;6242721;28;20228;-71
2021/08/15 12:20:22;;;;;;;6.40;5.47;;;35.90;47.40;;;;;;6243590;28;20193;-71
2021/08/15 12:23:25;;;;;;;7.70;5.10;;;35.40;50.10;;;;;;6244553;28;20193;-71
2021/08/15 12:26:31;;;;;;;11.25;5.50;;;34.90;51.90;;;;;;6242858;28;20192;-71
2021/08/15 12:29:38;;;;;;;9.13;5.45;;;34.50;54.00;;;;;;6243198;28;20602;-72
2021/08/15 12:32:40;;;;;;;7.07;5.07;;;34.10;56.00;;;;;;6242886;28;20192;-72
2021/08/15 12:35:42;;;;;;;7.00;5.30;;;33.50;57.50;;;;;;6244440;28;20227;-71
2021/08/15 12:38:44;;;;;;;7.07;5.10;;;32.90;59.00;;;;;;6243021;28;20200;-71
2021/08/15 12:41:48;;;;;;;9.13;5.72;;;32.70;60.00;;;;;;6259496;28;20278;-71
2021/08/15 12:44:52;;;;;;;6.07;4.68;;;32.40;61.20;;;;;;6244138;28;20281;-71
2021/08/15 12:48:00;;;;;;;8.35;5.60;;;32.10;62.60;;;;;;6242581;28;20273;-71
2021/08/15 12:51:02;;;;;;;15.57;6.70;;;31.70;63.30;;;;;;6244260;28;20196;-72
2021/08/15 12:54:23;;;;;;;14.55;8.10;;;31.20;65.10;;;;;;6244013;28;20216;-74
2021/08/15 12:57:27;;;;;;;14.85;6.50;;;29.70;67.60;;;;;;6243519;28;20184;-74
2021/08/15 13:00:38;;;;;;;9.63;6.43;;;28.00;72.40;;;;;;6244415;28;20215;-74
2021/08/15 13:03:42;;;;;;;8.45;5.03;;;27.20;75.50;;;;;;6242526;28;20216;-73
2021/08/15 13:06:45;;;;;;;13.73;6.28;;;26.80;77.60;;;;;;6245574;28;20528;-72
2021/08/15 13:09:47;;;;;;;12.07;6.20;;;26.00;79.40;;;;;;6247096;28;20220;-72
2021/08/15 13:12:50;;;;;;;11.60;6.15;;;25.00;83.20;;;;;;6248551;28;20667;-72
2021/08/15 13:15:54;;;;;;;9.15;6.45;;;24.60;90.60;;;;;;6246618;28;20216;-73
2021/08/15 13:18:57;;;;;;;8.80;6.07;;;24.80;96.20;;;;;;6248533;28;20188;-73
2021/08/15 13:21:59;;;;;;;10.70;5.82;;;25.50;99.90;;;;;;6248328;28;20648;-73
2021/08/15 13:25:02;;;;;;;7.18;5.38;;;26.00;98.70;;;;;;6246548;28;20282;-73
2021/08/15 13:28:05;;;;;;;8.07;5.85;;;26.10;98.20;;;;;;6246999;28;20279;-73
2021/08/15 13:31:07;;;;;;;6.82;5.32;;;26.40;99.40;;;;;;6246585;28;20558;-72
2021/08/15 13:34:10;;;;;;;7.85;5.70;;;26.40;99.20;;;;;;6263224;28;20220;-72
2021/08/15 13:37:13;;;;;;;7.82;4.95;;;26.40;99.80;;;;;;6247121;28;20200;-71
2021/08/15 13:40:16;;;;;;;6.72;5.38;;;26.30;99.50;;;;;;6246222;28;20257;-72
2021/08/15 13:43:18;;;;;;;7.80;5.32;;;26.00;99.70;;;;;;6247891;28;20199;-72
2021/08/15 13:46:20;;;;;;;10.30;5.13;;;25.80;99.90;;;;;;6247294;28;20198;-72
2021/08/15 13:49:23;;;;;;;6.80;4.63;;;25.40;99.90;;;;;;6247524;28;20614;-72
2021/08/15 13:52:25;;;;;;;5.97;4.53;;;25.10;99.90;;;;;;6246426;28;20199;-72
2021/08/15 13:55:27;;;;;;;8.50;4.43;;;24.90;99.90;;;;;;6245728;28;20215;-72
2021/08/15 13:58:32;;;;;;;9.18;5.13;;;25.30;99.90;;;;;;6247579;28;20192;-72
2021/08/15 14:01:35;;;;;;;7.20;5.05;;;26.20;99.90;;;;;;6262673;28;20203;-72
2021/08/15 14:04:40;;;;;;;9.27;5.75;;;27.60;99.90;;;;;;6247141;28;20204;-73
2021/08/15 14:07:43;;;;;;;6.88;5.45;;;29.10;99.90;;;;;;6246877;28;20196;-73
2021/08/15 14:10:45;;;;;;;7.95;5.85;;;30.40;97.00;;;;;;6245925;28;20204;-73
2021/08/15 14:13:48;;;;;;;6.00;5.20;;;31.60;94.30;;;;;;6247109;28;20656;-72
2021/08/15 14:16:51;;;;;;;7.07;5.25;;;32.50;92.60;;;;;;6246134;28;20781;-73
2021/08/15 14:19:55;;;;;;;8.50;5.32;;;33.30;91.20;;;;;;6246132;28;20203;-73
2021/08/15 14:22:57;;;;;;;6.55;5.45;;;33.60;90.10;;;;;;6246330;28;20191;-73
2021/08/15 14:26:00;;;;;;;7.10;4.93;;;33.50;88.60;;;;;;6246773;28;20247;-73
2021/08/15 14:29:02;;;;;;;7.05;4.85;;;33.70;86.20;;;;;;6246679;28;20668;-72
2021/08/15 14:32:09;;;;;;;8.70;5.55;;;34.00;85.00;;;;;;6246090;28;20558;-72
2021/08/15 14:35:13;;;;;;;9.93;5.78;;;34.30;85.80;;;;;;6246468;28;20219;-73
2021/08/15 14:38:15;;;;;;;9.20;6.43;;;34.80;83.50;;;;;;6261404;28;20207;-73
2021/08/15 14:41:17;;;;;;;7.35;6.00;;;35.50;82.20;;;;;;6245094;28;20559;-72
2021/08/15 14:44:19;;;;;;;9.85;6.45;;;36.10;77.90;;;;;;6246337;28;20285;-72
2021/08/15 14:47:22;;;;;;;8.60;6.30;;;36.60;76.50;;;;;;6245681;28;20282;-73
2021/08/15 14:50:24;;;;;;;10.15;6.75;;;37.10;73.20;;;;;;6244856;28;20192;-72
2021/08/15 14:53:27;;;;;;;7.15;6.18;;;37.40;70.10;;;;;;6245777;28;20188;-73
2021/08/15 14:56:30;;;;;;;12.30;7.13;;;37.60;67.80;;;;;;6261284;28;20204;-72
2021/08/15 14:59:32;;;;;;;6.93;6.07;;;37.70;67.00;;;;;;6245641;28;20587;-72
2021/08/15 15:02:34;;;;;;;11.93;6.95;;;37.70;65.90;;;;;;6246656;28;20777;-73
2021/08/15 15:05:39;;;;;;;11.23;6.70;;;37.60;63.80;;;;;;6245690;28;20207;-72
2021/08/15 15:08:41;;;;;;;8.30;6.30;;;37.50;65.30;;;;;;6244150;28;20200;-72
2021/08/15 15:11:44;;;;;;;14.25;6.35;;;37.40;65.20;;;;;;6245818;28;20314;-71
2021/08/15 15:14:46;;;;;;;8.77;5.97;;;37.30;65.10;;;;;;6260355;28;20675;-73
2021/08/15 15:17:49;;;;;;;7.57;5.72;;;37.20;65.40;;;;;;6243860;28;20253;-72
2021/08/15 15:20:52;;;;;;;9.30;5.10;;;37.20;65.60;;;;;;6245574;28;20650;-72
2021/08/15 15:23:54;;;;;;;8.50;6.00;;;37.30;64.50;;;;;;6244335;28;20297;-71
2021/08/15 15:26:57;;;;;;;9.50;6.25;;;37.50;63.10;;;;;;6244297;28;20188;-72
2021/08/15 15:29:59;;;;;;;9.55;6.80;;;37.70;63.20;;;;;;6244734;28;20643;-72
2021/08/15 15:33:01;;;;;;;7.78;6.32;;;38.00;62.40;;;;;;6245246;28;20231;-71
2021/08/15 15:36:04;;;;;;;7.70;5.88;;;38.30;61.90;;;;;;6243660;28;20239;-71
2021/08/15 15:39:07;;;;;;;10.23;5.72;;;38.50;60.80;;;;;;6243578;28;20249;-71
2021/08/15 15:42:09;;;;;;;7.55;4.85;;;38.60;59.70;;;;;;6245161;28;20291;-72
2021/08/15 15:45:11;;;;;;;4.88;4.40;;;38.80;58.70;;;;;;6244415;28;20569;-73
2021/08/15 15:48:14;;;;;;;6.68;4.70;;;38.80;57.10;;;;;;6238961;28;20664;-71
2021/08/15 15:51:16;;;;;;;7.55;4.60;;;38.10;57.10;;;;;;6244837;28;20372;-72
2021/08/15 15:54:18;;;;;;;8.00;4.47;;;36.60;58.70;;;;;;6245014;28;20670;-71
2021/08/15 15:57:20;;;;;;;7.25;4.35;;;34.90;62.40;;;;;;6244866;28;20655;-71